sensor_id;sensor_type;location;lat;lon;timestamp;P1;P2;P0
62591;PMS5003;48659;41.622;2.276;2023-01-15T00:00:41;50;42;
62591;PMS5003;48659;41.622;2.276;2023-01-15T00:03:09;48;43;
62591;PMS5003;48659;41.622;2.276;2023-01-15T00:05:36;42;40;
62591;PMS5003;48659;41.622;2.276;2023-01-15T00:08:05;44;41;
62591;PMS5003;48659;41.622;2.276;2023-01-15T00:10:33;45;40;
62591;PMS5003;48659;41.622;2.276;2023-01-15T00:13:01;42;39;
62591;PMS5003;48659;41.622;2.276;2023-01-15T00:15:29;46;43;
62591;PMS5003;48659;41.622;2.276;2023-01-15T00:17:57;44;40;
62591;PMS5003;48659;41.622;2.276;2023-01-15T00:20:26;42;39;
62591;PMS5003;48659;41.622;2.276;2023-01-15T00:22:54;46;41;
62591;PMS5003;48659;41.622;2.276;2023-01-15T00:25:21;43;41;
62591;PMS5003;48659;41.622;2.276;2023-01-15T00:27:48;47;43;
62591;PMS5003;48659;41.622;2.276;2023-01-15T00:30:27;50;48;
62591;PMS5003;48659;41.622;2.276;2023-01-15T00:32:56;43;36;
62591;PMS5003;48659;41.622;2.276;2023-01-15T00:35:24;47;42;
62591;PMS5003;48659;41.622;2.276;2023-01-15T00:37:51;45;43;
62591;PMS5003;48659;41.622;2.276;2023-01-15T00:40:19;46;45;
62591;PMS5003;48659;41.622;2.276;2023-01-15T00:42:46;39;38;
62591;PMS5003;48659;41.622;2.276;2023-01-15T00:45:14;41;39;
62591;PMS5003;48659;41.622;2.276;2023-01-15T00:47:42;51;42;
62591;PMS5003;48659;41.622;2.276;2023-01-15T00:50:11;42;41;
62591;PMS5003;48659;41.622;2.276;2023-01-15T00:52:40;39;37;
62591;PMS5003;48659;41.622;2.276;2023-01-15T00:55:08;46;40;
62591;PMS5003;48659;41.622;2.276;2023-01-15T00:57:36;48;43;
62591;PMS5003;48659;41.622;2.276;2023-01-15T01:00:05;47;43;
62591;PMS5003;48659;41.622;2.276;2023-01-15T01:02:33;44;42;
62591;PMS5003;48659;41.622;2.276;2023-01-15T01:05:01;41;38;
62591;PMS5003;48659;41.622;2.276;2023-01-15T01:07:28;40;37;
62591;PMS5003;48659;41.622;2.276;2023-01-15T01:09:56;44;44;
62591;PMS5003;48659;41.622;2.276;2023-01-15T01:12:24;39;39;
62591;PMS5003;48659;41.622;2.276;2023-01-15T01:14:52;39;37;
62591;PMS5003;48659;41.622;2.276;2023-01-15T01:17:24;42;38;
62591;PMS5003;48659;41.622;2.276;2023-01-15T01:19:51;40;37;
62591;PMS5003;48659;41.622;2.276;2023-01-15T01:22:25;38;36;
62591;PMS5003;48659;41.622;2.276;2023-01-15T01:24:52;41;38;
62591;PMS5003;48659;41.622;2.276;2023-01-15T01:27:20;44;44;
62591;PMS5003;48659;41.622;2.276;2023-01-15T01:29:48;42;37;
62591;PMS5003;48659;41.622;2.276;2023-01-15T01:32:15;41;36;
62591;PMS5003;48659;41.622;2.276;2023-01-15T01:32:25;40;38;
62591;PMS5003;48659;41.622;2.276;2023-01-15T01:34:52;41;40;
62591;PMS5003;48659;41.622;2.276;2023-01-15T01:37:20;38;35;
62591;PMS5003;48659;41.622;2.276;2023-01-15T01:39:47;36;35;
62591;PMS5003;48659;41.622;2.276;2023-01-15T01:42:15;36;35;
62591;PMS5003;48659;41.622;2.276;2023-01-15T01:44:58;38;34;
62591;PMS5003;48659;41.622;2.276;2023-01-15T01:47:28;53;51;
62591;PMS5003;48659;41.622;2.276;2023-01-15T01:49:59;46;44;
62591;PMS5003;48659;41.622;2.276;2023-01-15T01:52:31;51;41;
62591;PMS5003;48659;41.622;2.276;2023-01-15T01:55:04;40;37;
62591;PMS5003;48659;41.622;2.276;2023-01-15T01:57:32;41;40;
62591;PMS5003;48659;41.622;2.276;2023-01-15T02:00:01;39;38;
62591;PMS5003;48659;41.622;2.276;2023-01-15T02:02:29;42;42;
62591;PMS5003;48659;41.622;2.276;2023-01-15T02:04:57;41;39;
62591;PMS5003;48659;41.622;2.276;2023-01-15T02:07:24;46;45;
62591;PMS5003;48659;41.622;2.276;2023-01-15T02:09:53;46;44;
62591;PMS5003;48659;41.622;2.276;2023-01-15T02:12:22;46;40;
62591;PMS5003;48659;41.622;2.276;2023-01-15T02:14:56;48;46;
62591;PMS5003;48659;41.622;2.276;2023-01-15T02:17:31;46;44;
62591;PMS5003;48659;41.622;2.276;2023-01-15T02:20:12;45;42;
62591;PMS5003;48659;41.622;2.276;2023-01-15T02:22:52;45;42;
62591;PMS5003;48659;41.622;2.276;2023-01-15T02:25:29;45;42;
62591;PMS5003;48659;41.622;2.276;2023-01-15T02:28:07;42;39;
62591;PMS5003;48659;41.622;2.276;2023-01-15T02:30:42;45;41;
62591;PMS5003;48659;41.622;2.276;2023-01-15T02:33:13;42;40;
62591;PMS5003;48659;41.622;2.276;2023-01-15T02:35:57;42;37;
62591;PMS5003;48659;41.622;2.276;2023-01-15T02:38:27;43;43;
62591;PMS5003;48659;41.622;2.276;2023-01-15T02:40:59;49;45;
62591;PMS5003;48659;41.622;2.276;2023-01-15T02:43:31;42;40;
62591;PMS5003;48659;41.622;2.276;2023-01-15T02:46:01;41;38;
62591;PMS5003;48659;41.622;2.276;2023-01-15T02:48:31;39;39;
62591;PMS5003;48659;41.622;2.276;2023-01-15T02:51:05;47;44;
62591;PMS5003;48659;41.622;2.276;2023-01-15T02:53:38;42;41;
62591;PMS5003;48659;41.622;2.276;2023-01-15T02:56:09;47;41;
62591;PMS5003;48659;41.622;2.276;2023-01-15T02:58:41;52;42;
62591;PMS5003;48659;41.622;2.276;2023-01-15T03:01:12;44;44;
62591;PMS5003;48659;41.622;2.276;2023-01-15T03:03:55;47;42;
62591;PMS5003;48659;41.622;2.276;2023-01-15T03:06:31;50;44;
62591;PMS5003;48659;41.622;2.276;2023-01-15T03:09:04;48;46;
62591;PMS5003;48659;41.622;2.276;2023-01-15T03:11:35;41;39;
62591;PMS5003;48659;41.622;2.276;2023-01-15T03:14:12;44;41;
62591;PMS5003;48659;41.622;2.276;2023-01-15T03:16:45;51;42;
62591;PMS5003;48659;41.622;2.276;2023-01-15T03:19:25;41;40;
62591;PMS5003;48659;41.622;2.276;2023-01-15T03:21:57;39;38;
62591;PMS5003;48659;41.622;2.276;2023-01-15T03:24:29;38;36;
62591;PMS5003;48659;41.622;2.276;2023-01-15T03:27:02;39;33;
62591;PMS5003;48659;41.622;2.276;2023-01-15T03:29:30;40;38;
62591;PMS5003;48659;41.622;2.276;2023-01-15T03:32:01;36;34;
62591;PMS5003;48659;41.622;2.276;2023-01-15T03:34:30;40;37;
62591;PMS5003;48659;41.622;2.276;2023-01-15T03:37:03;41;41;
62591;PMS5003;48659;41.622;2.276;2023-01-15T03:39:31;45;42;
62591;PMS5003;48659;41.622;2.276;2023-01-15T03:42:02;38;37;
62591;PMS5003;48659;41.622;2.276;2023-01-15T03:44:42;43;38;
62591;PMS5003;48659;41.622;2.276;2023-01-15T03:47:28;45;37;
62591;PMS5003;48659;41.622;2.276;2023-01-15T03:50:04;39;35;
62591;PMS5003;48659;41.622;2.276;2023-01-15T03:52:43;36;35;
62591;PMS5003;48659;41.622;2.276;2023-01-15T03:55:15;45;41;
62591;PMS5003;48659;41.622;2.276;2023-01-15T03:58:02;43;40;
62591;PMS5003;48659;41.622;2.276;2023-01-15T04:00:37;36;33;
62591;PMS5003;48659;41.622;2.276;2023-01-15T04:03:08;33;31;
62591;PMS5003;48659;41.622;2.276;2023-01-15T04:05:39;35;34;
62591;PMS5003;48659;41.622;2.276;2023-01-15T04:08:07;29;25;
62591;PMS5003;48659;41.622;2.276;2023-01-15T04:10:37;24;22;
62591;PMS5003;48659;41.622;2.276;2023-01-15T04:13:15;35;28;
62591;PMS5003;48659;41.622;2.276;2023-01-15T04:15:53;31;31;
62591;PMS5003;48659;41.622;2.276;2023-01-15T04:18:21;26;24;
62591;PMS5003;48659;41.622;2.276;2023-01-15T04:20:49;24;21;
62591;PMS5003;48659;41.622;2.276;2023-01-15T04:23:18;21;20;
62591;PMS5003;48659;41.622;2.276;2023-01-15T04:25:45;24;23;
62591;PMS5003;48659;41.622;2.276;2023-01-15T04:28:13;29;24;
62591;PMS5003;48659;41.622;2.276;2023-01-15T04:30:41;24;24;
62591;PMS5003;48659;41.622;2.276;2023-01-15T04:33:09;28;26;
62591;PMS5003;48659;41.622;2.276;2023-01-15T04:35:37;16;15;
62591;PMS5003;48659;41.622;2.276;2023-01-15T04:38:04;14;12;
62591;PMS5003;48659;41.622;2.276;2023-01-15T04:40:32;21;18;
62591;PMS5003;48659;41.622;2.276;2023-01-15T04:42:59;18;18;
62591;PMS5003;48659;41.622;2.276;2023-01-15T04:45:27;8;8;
62591;PMS5003;48659;41.622;2.276;2023-01-15T04:47:54;11;11;
62591;PMS5003;48659;41.622;2.276;2023-01-15T04:50:21;10;10;
62591;PMS5003;48659;41.622;2.276;2023-01-15T04:52:49;12;11;
62591;PMS5003;48659;41.622;2.276;2023-01-15T04:55:17;14;11;
62591;PMS5003;48659;41.622;2.276;2023-01-15T04:57:44;15;14;
62591;PMS5003;48659;41.622;2.276;2023-01-15T05:00:16;14;12;
62591;PMS5003;48659;41.622;2.276;2023-01-15T05:02:45;11;11;
62591;PMS5003;48659;41.622;2.276;2023-01-15T05:05:14;9;9;
62591;PMS5003;48659;41.622;2.276;2023-01-15T05:07:41;11;10;
62591;PMS5003;48659;41.622;2.276;2023-01-15T05:10:09;14;12;
62591;PMS5003;48659;41.622;2.276;2023-01-15T05:12:36;18;15;
62591;PMS5003;48659;41.622;2.276;2023-01-15T05:15:04;13;13;
62591;PMS5003;48659;41.622;2.276;2023-01-15T05:17:32;15;11;
62591;PMS5003;48659;41.622;2.276;2023-01-15T05:20:00;11;11;
62591;PMS5003;48659;41.622;2.276;2023-01-15T05:22:27;9;9;
62591;PMS5003;48659;41.622;2.276;2023-01-15T05:24:54;10;10;
62591;PMS5003;48659;41.622;2.276;2023-01-15T05:27:28;12;11;
62591;PMS5003;48659;41.622;2.276;2023-01-15T05:29:57;12;12;
62591;PMS5003;48659;41.622;2.276;2023-01-15T05:32:24;8;8;
62591;PMS5003;48659;41.622;2.276;2023-01-15T05:34:51;9;9;
62591;PMS5003;48659;41.622;2.276;2023-01-15T05:37:19;7;7;
62591;PMS5003;48659;41.622;2.276;2023-01-15T05:39:46;8;8;
62591;PMS5003;48659;41.622;2.276;2023-01-15T05:42:13;12;11;
62591;PMS5003;48659;41.622;2.276;2023-01-15T05:44:40;9;6;
62591;PMS5003;48659;41.622;2.276;2023-01-15T05:47:08;10;10;
62591;PMS5003;48659;41.622;2.276;2023-01-15T05:49:35;9;9;
62591;PMS5003;48659;41.622;2.276;2023-01-15T05:52:03;14;13;
62591;PMS5003;48659;41.622;2.276;2023-01-15T05:54:32;13;11;
62591;PMS5003;48659;41.622;2.276;2023-01-15T05:57:01;10;9;
62591;PMS5003;48659;41.622;2.276;2023-01-15T05:59:30;9;8;
62591;PMS5003;48659;41.622;2.276;2023-01-15T06:01:58;5;5;
62591;PMS5003;48659;41.622;2.276;2023-01-15T06:04:28;7;7;
62591;PMS5003;48659;41.622;2.276;2023-01-15T06:06:56;10;10;
62591;PMS5003;48659;41.622;2.276;2023-01-15T06:09:25;10;10;
62591;PMS5003;48659;41.622;2.276;2023-01-15T06:11:53;7;7;
62591;PMS5003;48659;41.622;2.276;2023-01-15T06:14:20;10;10;
62591;PMS5003;48659;41.622;2.276;2023-01-15T06:16:48;10;10;
62591;PMS5003;48659;41.622;2.276;2023-01-15T06:19:16;11;11;
62591;PMS5003;48659;41.622;2.276;2023-01-15T06:21:53;12;11;
62591;PMS5003;48659;41.622;2.276;2023-01-15T06:24:24;12;11;
62591;PMS5003;48659;41.622;2.276;2023-01-15T06:26:51;11;10;
62591;PMS5003;48659;41.622;2.276;2023-01-15T06:29:19;15;15;
62591;PMS5003;48659;41.622;2.276;2023-01-15T06:31:46;15;15;
62591;PMS5003;48659;41.622;2.276;2023-01-15T06:34:15;18;15;
62591;PMS5003;48659;41.622;2.276;2023-01-15T06:36:43;20;17;
62591;PMS5003;48659;41.622;2.276;2023-01-15T06:39:10;17;13;
62591;PMS5003;48659;41.622;2.276;2023-01-15T06:41:37;12;12;
62591;PMS5003;48659;41.622;2.276;2023-01-15T06:44:04;15;13;
62591;PMS5003;48659;41.622;2.276;2023-01-15T06:46:32;16;12;
62591;PMS5003;48659;41.622;2.276;2023-01-15T06:48:59;16;15;
62591;PMS5003;48659;41.622;2.276;2023-01-15T06:51:27;14;14;
62591;PMS5003;48659;41.622;2.276;2023-01-15T06:53:54;14;14;
62591;PMS5003;48659;41.622;2.276;2023-01-15T06:56:25;12;12;
62591;PMS5003;48659;41.622;2.276;2023-01-15T06:58:52;21;19;
62591;PMS5003;48659;41.622;2.276;2023-01-15T07:01:20;13;13;
62591;PMS5003;48659;41.622;2.276;2023-01-15T07:03:47;12;12;
62591;PMS5003;48659;41.622;2.276;2023-01-15T07:06:14;15;15;
62591;PMS5003;48659;41.622;2.276;2023-01-15T07:08:42;14;13;
62591;PMS5003;48659;41.622;2.276;2023-01-15T07:11:10;18;17;
62591;PMS5003;48659;41.622;2.276;2023-01-15T07:13:37;16;14;
62591;PMS5003;48659;41.622;2.276;2023-01-15T07:16:05;14;12;
62591;PMS5003;48659;41.622;2.276;2023-01-15T07:18:32;15;11;
62591;PMS5003;48659;41.622;2.276;2023-01-15T07:21:00;11;11;
62591;PMS5003;48659;41.622;2.276;2023-01-15T07:23:27;12;12;
62591;PMS5003;48659;41.622;2.276;2023-01-15T07:25:54;14;13;
62591;PMS5003;48659;41.622;2.276;2023-01-15T07:28:25;14;11;
62591;PMS5003;48659;41.622;2.276;2023-01-15T07:30:56;15;14;
62591;PMS5003;48659;41.622;2.276;2023-01-15T07:33:24;11;11;
62591;PMS5003;48659;41.622;2.276;2023-01-15T07:35:51;16;15;
62591;PMS5003;48659;41.622;2.276;2023-01-15T07:38:39;15;15;
62591;PMS5003;48659;41.622;2.276;2023-01-15T07:41:07;12;12;
62591;PMS5003;48659;41.622;2.276;2023-01-15T07:43:34;16;16;
62591;PMS5003;48659;41.622;2.276;2023-01-15T07:46:02;15;12;
62591;PMS5003;48659;41.622;2.276;2023-01-15T07:48:30;13;11;
62591;PMS5003;48659;41.622;2.276;2023-01-15T07:50:57;10;9;
62591;PMS5003;48659;41.622;2.276;2023-01-15T07:53:24;13;11;
62591;PMS5003;48659;41.622;2.276;2023-01-15T07:55:52;14;13;
62591;PMS5003;48659;41.622;2.276;2023-01-15T07:58:19;10;10;
62591;PMS5003;48659;41.622;2.276;2023-01-15T08:00:46;11;11;
62591;PMS5003;48659;41.622;2.276;2023-01-15T08:03:13;12;10;
62591;PMS5003;48659;41.622;2.276;2023-01-15T08:05:40;10;10;
62591;PMS5003;48659;41.622;2.276;2023-01-15T08:08:12;8;8;
62591;PMS5003;48659;41.622;2.276;2023-01-15T08:10:41;12;11;
62591;PMS5003;48659;41.622;2.276;2023-01-15T08:13:08;11;11;
62591;PMS5003;48659;41.622;2.276;2023-01-15T08:15:37;13;11;
62591;PMS5003;48659;41.622;2.276;2023-01-15T08:18:06;9;8;
62591;PMS5003;48659;41.622;2.276;2023-01-15T08:20:33;13;10;
62591;PMS5003;48659;41.622;2.276;2023-01-15T08:23:01;12;9;
62591;PMS5003;48659;41.622;2.276;2023-01-15T08:25:29;9;9;
62591;PMS5003;48659;41.622;2.276;2023-01-15T08:27:59;6;6;
62591;PMS5003;48659;41.622;2.276;2023-01-15T08:30:27;10;10;
62591;PMS5003;48659;41.622;2.276;2023-01-15T08:32:57;7;6;
62591;PMS5003;48659;41.622;2.276;2023-01-15T08:35:25;8;8;
62591;PMS5003;48659;41.622;2.276;2023-01-15T08:37:52;9;9;
62591;PMS5003;48659;41.622;2.276;2023-01-15T08:40:19;7;7;
62591;PMS5003;48659;41.622;2.276;2023-01-15T08:42:52;8;8;
62591;PMS5003;48659;41.622;2.276;2023-01-15T08:45:23;8;7;
62591;PMS5003;48659;41.622;2.276;2023-01-15T08:47:53;9;8;
62591;PMS5003;48659;41.622;2.276;2023-01-15T08:50:21;12;9;
62591;PMS5003;48659;41.622;2.276;2023-01-15T08:52:48;10;10;
62591;PMS5003;48659;41.622;2.276;2023-01-15T08:55:15;9;9;
62591;PMS5003;48659;41.622;2.276;2023-01-15T08:57:43;8;8;
62591;PMS5003;48659;41.622;2.276;2023-01-15T09:00:11;9;7;
62591;PMS5003;48659;41.622;2.276;2023-01-15T09:02:39;24;24;
62591;PMS5003;48659;41.622;2.276;2023-01-15T09:05:07;11;11;
62591;PMS5003;48659;41.622;2.276;2023-01-15T09:07:34;27;25;
62591;PMS5003;48659;41.622;2.276;2023-01-15T09:10:01;13;13;
62591;PMS5003;48659;41.622;2.276;2023-01-15T09:12:29;21;17;
62591;PMS5003;48659;41.622;2.276;2023-01-15T09:14:56;19;17;
62591;PMS5003;48659;41.622;2.276;2023-01-15T09:17:24;21;20;
62591;PMS5003;48659;41.622;2.276;2023-01-15T09:19:52;23;21;
62591;PMS5003;48659;41.622;2.276;2023-01-15T09:22:24;25;23;
62591;PMS5003;48659;41.622;2.276;2023-01-15T09:24:52;26;24;
62591;PMS5003;48659;41.622;2.276;2023-01-15T09:27:20;26;23;
62591;PMS5003;48659;41.622;2.276;2023-01-15T09:29:48;28;23;
62591;PMS5003;48659;41.622;2.276;2023-01-15T09:32:15;25;25;
62591;PMS5003;48659;41.622;2.276;2023-01-15T09:34:51;28;24;
62591;PMS5003;48659;41.622;2.276;2023-01-15T09:37:18;13;12;
62591;PMS5003;48659;41.622;2.276;2023-01-15T09:39:46;10;10;
62591;PMS5003;48659;41.622;2.276;2023-01-15T09:42:20;11;11;
62591;PMS5003;48659;41.622;2.276;2023-01-15T09:45:01;11;10;
62591;PMS5003;48659;41.622;2.276;2023-01-15T09:47:39;8;8;
62591;PMS5003;48659;41.622;2.276;2023-01-15T09:50:16;10;9;
62591;PMS5003;48659;41.622;2.276;2023-01-15T09:52:56;12;12;
62591;PMS5003;48659;41.622;2.276;2023-01-15T09:55:39;14;13;
62591;PMS5003;48659;41.622;2.276;2023-01-15T09:58:12;17;17;
62591;PMS5003;48659;41.622;2.276;2023-01-15T10:00:43;14;13;
62591;PMS5003;48659;41.622;2.276;2023-01-15T10:03:16;12;12;
62591;PMS5003;48659;41.622;2.276;2023-01-15T10:05:55;17;15;
62591;PMS5003;48659;41.622;2.276;2023-01-15T10:08:32;10;10;
62591;PMS5003;48659;41.622;2.276;2023-01-15T10:11:04;14;14;
62591;PMS5003;48659;41.622;2.276;2023-01-15T10:13:54;14;14;
62591;PMS5003;48659;41.622;2.276;2023-01-15T10:16:27;16;14;
62591;PMS5003;48659;41.622;2.276;2023-01-15T10:18:57;17;16;
62591;PMS5003;48659;41.622;2.276;2023-01-15T10:21:28;17;16;
62591;PMS5003;48659;41.622;2.276;2023-01-15T10:24:04;15;15;
62591;PMS5003;48659;41.622;2.276;2023-01-15T10:26:39;20;17;
62591;PMS5003;48659;41.622;2.276;2023-01-15T10:29:14;13;12;
62591;PMS5003;48659;41.622;2.276;2023-01-15T10:31:55;15;13;
62591;PMS5003;48659;41.622;2.276;2023-01-15T10:34:52;13;13;
62591;PMS5003;48659;41.622;2.276;2023-01-15T10:37:35;13;13;
62591;PMS5003;48659;41.622;2.276;2023-01-15T10:40:14;14;11;
62591;PMS5003;48659;41.622;2.276;2023-01-15T10:42:52;12;12;
62591;PMS5003;48659;41.622;2.276;2023-01-15T10:45:25;12;12;
62591;PMS5003;48659;41.622;2.276;2023-01-15T10:47:58;18;15;
62591;PMS5003;48659;41.622;2.276;2023-01-15T10:50:30;13;12;
62591;PMS5003;48659;41.622;2.276;2023-01-15T10:53:01;14;13;
62591;PMS5003;48659;41.622;2.276;2023-01-15T10:55:37;13;13;
62591;PMS5003;48659;41.622;2.276;2023-01-15T10:58:10;14;12;
62591;PMS5003;48659;41.622;2.276;2023-01-15T11:00:43;14;13;
62591;PMS5003;48659;41.622;2.276;2023-01-15T11:03:18;12;12;
62591;PMS5003;48659;41.622;2.276;2023-01-15T11:05:58;14;13;
62591;PMS5003;48659;41.622;2.276;2023-01-15T11:08:25;12;12;
62591;PMS5003;48659;41.622;2.276;2023-01-15T11:10:52;12;12;
62591;PMS5003;48659;41.622;2.276;2023-01-15T11:13:21;12;10;
62591;PMS5003;48659;41.622;2.276;2023-01-15T11:15:49;10;10;
62591;PMS5003;48659;41.622;2.276;2023-01-15T11:18:18;11;10;
62591;PMS5003;48659;41.622;2.276;2023-01-15T11:20:50;9;9;
62591;PMS5003;48659;41.622;2.276;2023-01-15T11:23:19;13;13;
62591;PMS5003;48659;41.622;2.276;2023-01-15T11:25:47;11;10;
62591;PMS5003;48659;41.622;2.276;2023-01-15T11:28:33;11;11;
62591;PMS5003;48659;41.622;2.276;2023-01-15T11:31:01;9;9;
62591;PMS5003;48659;41.622;2.276;2023-01-15T11:33:30;11;11;
62591;PMS5003;48659;41.622;2.276;2023-01-15T11:35:58;12;11;
62591;PMS5003;48659;41.622;2.276;2023-01-15T11:38:27;15;12;
62591;PMS5003;48659;41.622;2.276;2023-01-15T11:40:57;16;15;
62591;PMS5003;48659;41.622;2.276;2023-01-15T11:43:27;20;19;
62591;PMS5003;48659;41.622;2.276;2023-01-15T11:45:56;18;17;
62591;PMS5003;48659;41.622;2.276;2023-01-15T11:48:26;17;17;
62591;PMS5003;48659;41.622;2.276;2023-01-15T11:50:54;20;19;
62591;PMS5003;48659;41.622;2.276;2023-01-15T11:53:28;20;18;
62591;PMS5003;48659;41.622;2.276;2023-01-15T11:56:00;17;16;
62591;PMS5003;48659;41.622;2.276;2023-01-15T11:58:31;18;18;
62591;PMS5003;48659;41.622;2.276;2023-01-15T12:01:05;25;25;
62591;PMS5003;48659;41.622;2.276;2023-01-15T12:03:33;113;105;
62591;PMS5003;48659;41.622;2.276;2023-01-15T12:06:03;43;41;
62591;PMS5003;48659;41.622;2.276;2023-01-15T12:08:38;19;17;
62591;PMS5003;48659;41.622;2.276;2023-01-15T12:11:17;20;20;
62591;PMS5003;48659;41.622;2.276;2023-01-15T12:14:10;16;16;
62591;PMS5003;48659;41.622;2.276;2023-01-15T12:17:22;21;20;
62591;PMS5003;48659;41.622;2.276;2023-01-15T12:20:03;24;21;
62591;PMS5003;48659;41.622;2.276;2023-01-15T12:22:46;22;21;
62591;PMS5003;48659;41.622;2.276;2023-01-15T12:25:28;22;21;
62591;PMS5003;48659;41.622;2.276;2023-01-15T12:28:05;19;17;
62591;PMS5003;48659;41.622;2.276;2023-01-15T12:30:43;22;20;
62591;PMS5003;48659;41.622;2.276;2023-01-15T12:33:18;18;18;
62591;PMS5003;48659;41.622;2.276;2023-01-15T12:36:02;20;18;
62591;PMS5003;48659;41.622;2.276;2023-01-15T12:38:40;19;18;
62591;PMS5003;48659;41.622;2.276;2023-01-15T12:41:13;19;18;
62591;PMS5003;48659;41.622;2.276;2023-01-15T12:43:53;30;25;
62591;PMS5003;48659;41.622;2.276;2023-01-15T12:46:26;22;21;
62591;PMS5003;48659;41.622;2.276;2023-01-15T12:48:57;23;23;
62591;PMS5003;48659;41.622;2.276;2023-01-15T12:51:34;24;20;
62591;PMS5003;48659;41.622;2.276;2023-01-15T12:54:12;26;25;
62591;PMS5003;48659;41.622;2.276;2023-01-15T12:56:46;28;26;
62591;PMS5003;48659;41.622;2.276;2023-01-15T12:59:21;29;27;
62591;PMS5003;48659;41.622;2.276;2023-01-15T13:01:57;24;23;
62591;PMS5003;48659;41.622;2.276;2023-01-15T13:04:31;29;28;
62591;PMS5003;48659;41.622;2.276;2023-01-15T13:07:09;25;22;
62591;PMS5003;48659;41.622;2.276;2023-01-15T13:09:43;25;25;
62591;PMS5003;48659;41.622;2.276;2023-01-15T13:12:17;27;24;
62591;PMS5003;48659;41.622;2.276;2023-01-15T13:14:45;27;24;
62591;PMS5003;48659;41.622;2.276;2023-01-15T13:17:16;26;25;
62591;PMS5003;48659;41.622;2.276;2023-01-15T13:19:53;29;27;
62591;PMS5003;48659;41.622;2.276;2023-01-15T13:22:30;26;25;
62591;PMS5003;48659;41.622;2.276;2023-01-15T13:25:17;25;23;
62591;PMS5003;48659;41.622;2.276;2023-01-15T13:28:07;27;25;
62591;PMS5003;48659;41.622;2.276;2023-01-15T13:30:52;29;26;
62591;PMS5003;48659;41.622;2.276;2023-01-15T13:33:32;25;23;
62591;PMS5003;48659;41.622;2.276;2023-01-15T13:36:07;28;26;
62591;PMS5003;48659;41.622;2.276;2023-01-15T13:38:40;28;27;
62591;PMS5003;48659;41.622;2.276;2023-01-15T13:41:11;29;26;
62591;PMS5003;48659;41.622;2.276;2023-01-15T13:43:44;29;27;
62591;PMS5003;48659;41.622;2.276;2023-01-15T13:46:12;25;25;
62591;PMS5003;48659;41.622;2.276;2023-01-15T13:48:46;27;24;
62591;PMS5003;48659;41.622;2.276;2023-01-15T13:51:25;26;26;
62591;PMS5003;48659;41.622;2.276;2023-01-15T13:53:55;31;28;
62591;PMS5003;48659;41.622;2.276;2023-01-15T13:56:27;27;27;
62591;PMS5003;48659;41.622;2.276;2023-01-15T13:58:57;26;23;
62591;PMS5003;48659;41.622;2.276;2023-01-15T14:01:30;26;25;
62591;PMS5003;48659;41.622;2.276;2023-01-15T14:04:02;25;23;
62591;PMS5003;48659;41.622;2.276;2023-01-15T14:06:35;28;24;
62591;PMS5003;48659;41.622;2.276;2023-01-15T14:09:07;27;23;
62591;PMS5003;48659;41.622;2.276;2023-01-15T14:11:37;24;24;
62591;PMS5003;48659;41.622;2.276;2023-01-15T14:14:15;25;23;
62591;PMS5003;48659;41.622;2.276;2023-01-15T14:17:00;27;25;
62591;PMS5003;48659;41.622;2.276;2023-01-15T14:19:42;22;22;
62591;PMS5003;48659;41.622;2.276;2023-01-15T14:22:31;20;20;
62591;PMS5003;48659;41.622;2.276;2023-01-15T14:25:29;22;19;
62591;PMS5003;48659;41.622;2.276;2023-01-15T14:28:15;23;22;
62591;PMS5003;48659;41.622;2.276;2023-01-15T14:31:05;23;19;
62591;PMS5003;48659;41.622;2.276;2023-01-15T14:34:31;22;21;
62591;PMS5003;48659;41.622;2.276;2023-01-15T14:37:01;33;22;
62591;PMS5003;48659;41.622;2.276;2023-01-15T14:39:32;28;26;
62591;PMS5003;48659;41.622;2.276;2023-01-15T14:42:08;24;24;
62591;PMS5003;48659;41.622;2.276;2023-01-15T14:44:40;21;18;
62591;PMS5003;48659;41.622;2.276;2023-01-15T14:47:17;32;31;
62591;PMS5003;48659;41.622;2.276;2023-01-15T14:49:58;24;22;
62591;PMS5003;48659;41.622;2.276;2023-01-15T14:52:28;22;22;
62591;PMS5003;48659;41.622;2.276;2023-01-15T14:54:56;22;22;
62591;PMS5003;48659;41.622;2.276;2023-01-15T14:57:25;27;27;
62591;PMS5003;48659;41.622;2.276;2023-01-15T14:59:56;26;23;
62591;PMS5003;48659;41.622;2.276;2023-01-15T15:02:27;21;20;
62591;PMS5003;48659;41.622;2.276;2023-01-15T15:05:00;24;21;
62591;PMS5003;48659;41.622;2.276;2023-01-15T15:07:31;22;21;
62591;PMS5003;48659;41.622;2.276;2023-01-15T15:10:03;20;18;
62591;PMS5003;48659;41.622;2.276;2023-01-15T15:12:45;15;15;
62591;PMS5003;48659;41.622;2.276;2023-01-15T15:15:20;21;20;
62591;PMS5003;48659;41.622;2.276;2023-01-15T15:18:02;22;19;
62591;PMS5003;48659;41.622;2.276;2023-01-15T15:20:43;23;22;
62591;PMS5003;48659;41.622;2.276;2023-01-15T15:23:17;31;23;
62591;PMS5003;48659;41.622;2.276;2023-01-15T15:26:02;19;19;
62591;PMS5003;48659;41.622;2.276;2023-01-15T15:28:31;19;18;
62591;PMS5003;48659;41.622;2.276;2023-01-15T15:30:58;24;24;
62591;PMS5003;48659;41.622;2.276;2023-01-15T15:33:27;25;22;
62591;PMS5003;48659;41.622;2.276;2023-01-15T15:36:02;26;22;
62591;PMS5003;48659;41.622;2.276;2023-01-15T15:38:36;38;37;
62591;PMS5003;48659;41.622;2.276;2023-01-15T15:41:04;40;37;
62591;PMS5003;48659;41.622;2.276;2023-01-15T15:43:38;33;32;
62591;PMS5003;48659;41.622;2.276;2023-01-15T15:46:23;37;37;
62591;PMS5003;48659;41.622;2.276;2023-01-15T15:48:55;46;41;
62591;PMS5003;48659;41.622;2.276;2023-01-15T15:51:30;35;35;
62591;PMS5003;48659;41.622;2.276;2023-01-15T15:54:15;32;29;
62591;PMS5003;48659;41.622;2.276;2023-01-15T15:56:46;33;33;
62591;PMS5003;48659;41.622;2.276;2023-01-15T15:59:21;62;58;
62591;PMS5003;48659;41.622;2.276;2023-01-15T16:01:55;38;36;
62591;PMS5003;48659;41.622;2.276;2023-01-15T16:04:25;37;32;
62591;PMS5003;48659;41.622;2.276;2023-01-15T16:06:53;37;35;
62591;PMS5003;48659;41.622;2.276;2023-01-15T16:09:24;42;37;
62591;PMS5003;48659;41.622;2.276;2023-01-15T16:11:52;37;32;
62591;PMS5003;48659;41.622;2.276;2023-01-15T16:14:21;47;44;
62591;PMS5003;48659;41.622;2.276;2023-01-15T16:16:51;37;33;
62591;PMS5003;48659;41.622;2.276;2023-01-15T16:19:25;58;50;
62591;PMS5003;48659;41.622;2.276;2023-01-15T16:21:52;54;52;
62591;PMS5003;48659;41.622;2.276;2023-01-15T16:24:22;43;41;
62591;PMS5003;48659;41.622;2.276;2023-01-15T16:26:54;40;38;
62591;PMS5003;48659;41.622;2.276;2023-01-15T16:29:25;50;43;
62591;PMS5003;48659;41.622;2.276;2023-01-15T16:31:55;60;58;
62591;PMS5003;48659;41.622;2.276;2023-01-15T16:34:23;77;75;
62591;PMS5003;48659;41.622;2.276;2023-01-15T16:36:53;47;47;
62591;PMS5003;48659;41.622;2.276;2023-01-15T16:39:22;45;43;
62591;PMS5003;48659;41.622;2.276;2023-01-15T16:41:53;35;34;
62591;PMS5003;48659;41.622;2.276;2023-01-15T16:44:25;29;28;
62591;PMS5003;48659;41.622;2.276;2023-01-15T16:47:01;50;46;
62591;PMS5003;48659;41.622;2.276;2023-01-15T16:49:31;43;40;